To NAV CANADA Home Page Login to a new session Search on AWWS site Feedback and Comments Disclaimer Vers la page française équivalente Tips FAQ What's new on the site To the Forecasts and Observations / NOTAM section To "File a Flight Plan" website Publications and other links Update of the User's profile FIC Telephone Numbers My Weather Data Folder Route Weather Data Regional Weather Data Local Weather Data To the Forecasts and Observations / NOTAM section
Request Generated 07/24/2016 at 14:44:22 UTC . Weather information available at that time is displayed.

METAR/TAF

QUAQTAQ/QC    

METAR CYHA 241400Z 32003KT 15SM VCFG SCT007 BKN026 07/06 A2997 RMK
SF3SC4 VIS W-NW 4 SLP153=
METAR CYHA 241300Z 34003KT 15SM BKN006 OVC017 07/05 A2996 RMK ST7SC1
SLP149=
METAR CYHA 241200Z 06003KT 15SM BCFG FEW007 BKN017 BKN033 07/05 A2994
RMK SF1SC4SC2 SLP143=

TAF AMD CYHA 241420Z 2414/2421 34005KT P6SM FEW006 BKN025 TEMPO
2414/2417 2SM BR BKN006 OVC020
FM241700 02005KT P6SM FEW010 TEMPO 2417/2421 BKN010
RMK NXT FCST WILL BE ISSUED AT 251345Z=
Your time UTC time
Weather data provided by Environment Canada and NAV CANADA